Time;durP1;ratioP1;P1;durP2;ratioP2;P2;SDS_P1;SDS_P2;PMS_P1;PMS_P2;Temp;Humidity;BMP_temperature;BMP_pressure;BME280_temperature;BME280_humidity;BME280_pressure;Samples;Min_cycle;Max_cycle;Signal;HPM_P1;HPM_P2
2022/01/04 00:02:03;;;;;;;20.75;8.48;;;6.70;99.90;;;;;;5027314;28;20028;-80
2022/01/04 00:08:43;;;;;;;16.17;7.03;;;6.60;99.90;;;;;;5035262;28;20155;-80
2022/01/04 00:15:47;;;;;;;15.98;7.03;;;6.30;99.90;;;;;;4996522;28;20035;-80
2022/01/04 00:19:18;;;;;;;19.40;7.85;;;6.20;99.90;;;;;;4977598;28;20035;-80
2022/01/04 00:36:01;;;;;;;16.52;7.18;;;5.90;99.90;;;;;;4977783;28;20022;-81
2022/01/04 00:53:25;;;;;;;18.08;7.22;;;5.40;99.90;;;;;;4999144;28;20030;-80
2022/01/04 00:55:55;;;;;;;23.70;8.00;;;5.30;99.90;;;;;;4964964;28;20023;-80
2022/01/04 00:58:21;;;;;;;19.42;7.40;;;5.20;99.90;;;;;;4981302;28;20030;-80
2022/01/04 01:04:28;;;;;;;16.92;6.40;;;5.30;99.90;;;;;;4877772;29;20050;-80
2022/01/04 01:07:40;;;;;;;20.40;8.93;;;5.40;99.90;;;;;;4863862;29;20043;-80
2022/01/04 01:10:48;;;;;;;23.30;8.38;;;5.40;99.90;;;;;;4833783;29;20026;-81
2022/01/04 01:26:06;;;;;;;9.82;2.60;;;5.80;99.90;;;;;;5395552;23;20046;-78
2022/01/04 01:28:36;;;;;;;8.02;3.38;;;5.80;99.90;;;;;;5009102;28;20129;-79
2022/01/04 01:31:02;;;;;;;6.03;2.08;;;5.80;99.90;;;;;;5013254;28;20023;-78
2022/01/04 01:33:28;;;;;;;;;;;5.80;99.90;;;;;;4994323;28;20015;-80
2022/01/04 01:35:55;;;;;;;6.97;2.40;;;5.80;99.90;;;;;;4994865;28;19912;-78
2022/01/04 01:38:31;;;;;;;10.10;3.28;;;5.90;99.90;;;;;;5019811;28;20037;-80
2022/01/04 01:40:57;;;;;;;11.60;3.73;;;5.90;99.90;;;;;;4983726;28;20037;-78
2022/01/04 01:43:24;;;;;;;;;;;5.90;99.90;;;;;;4986389;28;20033;-79
2022/01/04 01:45:51;;;;;;;13.50;5.18;;;5.90;99.90;;;;;;5003558;28;19910;-79
2022/01/04 01:48:17;;;;;;;12.07;5.10;;;5.90;99.90;;;;;;5017418;28;20475;-79
2022/01/04 01:51:01;;;;;;;11.70;5.05;;;5.90;99.90;;;;;;5004289;28;20022;-81
2022/01/04 01:53:31;;;;;;;10.57;4.85;;;5.90;99.90;;;;;;4998302;28;20023;-81
2022/01/04 02:00:36;;;;;;;14.32;5.18;;;5.80;99.90;;;;;;5015907;28;20126;-80
2022/01/04 02:07:37;;;;;;;12.23;4.13;;;5.80;99.90;;;;;;4963286;28;20030;-80
2022/01/04 02:10:23;;;;;;;8.52;3.83;;;5.70;99.90;;;;;;5014593;28;20050;-79
2022/01/04 02:20:57;;;;;;;12.68;4.72;;;5.50;99.90;;;;;;5413094;23;20038;-79
2022/01/04 02:23:24;;;;;;;11.38;6.30;;;5.50;99.90;;;;;;5019488;28;20054;-79
2022/01/04 02:25:56;;;;;;;13.32;4.80;;;5.40;99.90;;;;;;5002574;28;20061;-80
2022/01/04 02:28:25;;;;;;;9.02;3.42;;;5.50;99.90;;;;;;5003748;28;20038;-79
2022/01/04 02:31:03;;;;;;;7.35;3.30;;;5.50;99.90;;;;;;5018102;28;20038;-79
2022/01/04 02:34:07;;;;;;;9.63;3.70;;;5.60;99.90;;;;;;5017862;28;20014;-82
2022/01/04 02:40:56;;;;;;;8.40;2.83;;;5.50;99.90;;;;;;5021408;28;20030;-81
2022/01/04 02:44:21;;;;;;;8.68;3.58;;;5.50;99.90;;;;;;5000249;28;20015;-81
2022/01/04 15:43:25;;;;;;;48.78;27.55;;;8.80;99.90;;;;;;5947758;23;20119;-79
2022/01/04 15:45:57;;;;;;;57.30;32.63;;;8.80;99.90;;;;;;5018778;28;20038;-79
2022/01/04 16:07:39;;;;;;;246.88;123.70;;;8.70;99.90;;;;;;5639007;23;19922;-79
2022/01/04 16:10:30;;;;;;;86.55;51.53;;;8.70;99.90;;;;;;5000196;28;20411;-80
2022/01/04 16:13:53;;;;;;;34.90;21.05;;;8.70;99.90;;;;;;5003515;28;20050;-79
2022/01/04 16:17:30;;;;;;;26.05;17.45;;;8.70;99.90;;;;;;4984978;28;20037;-79
2022/01/04 16:23:46;;;;;;;48.17;28.33;;;8.70;99.90;;;;;;4983051;28;20098;-79
2022/01/04 16:26:53;;;;;;;45.63;26.33;;;8.60;99.90;;;;;;4940584;28;20035;-78
2022/01/04 16:29:43;;;;;;;70.45;33.95;;;8.70;99.90;;;;;;5012908;28;20022;-79
2022/01/04 16:32:19;;;;;;;40.25;22.45;;;8.70;99.90;;;;;;5009054;28;20110;-78
2022/01/04 16:35:30;;;;;;;26.58;17.23;;;8.80;99.90;;;;;;4965155;28;20095;-79
2022/01/04 16:38:17;;;;;;;36.55;24.73;;;8.60;99.90;;;;;;4958695;28;20070;-78
2022/01/04 16:41:43;;;;;;;57.55;34.17;;;8.60;99.90;;;;;;5014076;28;20107;-80
2022/01/04 16:44:50;;;;;;;71.63;39.72;;;8.60;99.90;;;;;;4978300;28;20023;-79
2022/01/04 16:48:35;;;;;;;77.83;41.80;;;8.50;99.90;;;;;;4921694;29;20071;-80
2022/01/04 16:52:05;;;;;;;59.72;33.90;;;8.50;99.90;;;;;;4892413;29;20351;-79
2022/01/04 16:54:55;;;;;;;65.13;40.22;;;8.50;99.90;;;;;;4889729;29;20041;-79
2022/01/04 16:57:22;;;;;;;76.45;42.65;;;8.30;99.90;;;;;;4944623;29;20594;-78
2022/01/04 17:00:07;;;;;;;67.85;40.88;;;8.20;99.90;;;;;;4952361;28;20138;-78
2022/01/04 17:15:32;;;;;;;80.97;49.22;;;8.10;99.90;;;;;;4897973;29;20175;-78
2022/01/04 17:15:37;;;;;;;116.97;65.68;;;8.00;99.90;;;;;;4897920;29;20045;-78
2022/01/04 17:19:05;;;;;;;76.35;46.67;;;8.00;99.90;;;;;;4890236;29;20071;-79
2022/01/04 17:21:51;;;;;;;81.88;48.38;;;7.90;99.90;;;;;;4899270;29;20055;-78
2022/01/04 17:24:27;;;;;;;99.20;53.28;;;7.90;99.90;;;;;;4948681;28;20030;-79
2022/01/04 17:32:05;;;;;;;117.95;65.97;;;7.80;99.90;;;;;;5520336;23;20598;-78
2022/01/04 17:34:30;;;;;;;112.80;64.53;;;7.80;99.90;;;;;;4958708;28;20074;-78
2022/01/04 17:36:56;;;;;;;;;;;7.80;99.90;;;;;;4974942;28;20035;-79
2022/01/04 17:39:37;;;;;;;50.60;32.53;;;7.80;99.90;;;;;;4980917;28;19942;-79
2022/01/04 17:45:57;;;;;;;46.67;28.13;;;7.90;99.90;;;;;;5003086;28;20018;-80
2022/01/04 17:48:53;;;;;;;44.75;27.42;;;7.80;99.90;;;;;;4872648;29;20029;-79
2022/01/04 17:55:41;;;;;;;43.58;25.65;;;7.70;99.90;;;;;;4867780;29;20098;-79
2022/01/04 17:58:56;;;;;;;50.75;30.23;;;7.70;99.90;;;;;;4775789;30;20071;-79
2022/01/04 18:18:25;;;;;;;50.95;31.05;;;8.10;99.90;;;;;;5710254;23;21087;-79
2022/01/04 18:20:55;;;;;;;40.35;27.13;;;8.10;99.90;;;;;;4987221;28;20038;-79
2022/01/04 18:23:43;;;;;;;67.70;41.05;;;8.20;99.90;;;;;;4958905;28;20042;-79
2022/01/04 18:26:26;;;;;;;64.07;36.65;;;8.20;99.90;;;;;;4989790;28;20030;-78
2022/01/04 18:29:23;;;;;;;64.35;38.80;;;8.20;99.90;;;;;;4944177;28;20031;-79
2022/01/04 18:33:07;;;;;;;83.90;47.03;;;8.20;99.90;;;;;;4882856;29;20049;-79
2022/01/04 18:36:25;;;;;;;78.85;47.78;;;8.30;99.90;;;;;;4868171;29;20419;-79
2022/01/04 18:40:09;;;;;;;58.08;34.50;;;8.30;99.90;;;;;;4812364;29;20126;-79
2022/01/04 18:43:02;;;;;;;76.68;46.97;;;8.40;99.90;;;;;;4810700;29;20073;-79
2022/01/04 18:55:19;;;;;;;53.25;33.03;;;8.40;99.90;;;;;;4872619;29;20054;-79
2022/01/04 18:58:34;;;;;;;54.80;37.78;;;8.40;99.90;;;;;;4853373;29;20073;-80
2022/01/04 19:01:58;;;;;;;46.33;30.15;;;8.40;99.90;;;;;;4859994;29;20037;-78
2022/01/04 19:08:46;;;;;;;52.53;33.05;;;8.50;99.90;;;;;;4879905;29;20054;-79
2022/01/04 19:15:13;;;;;;;48.28;30.73;;;8.40;99.90;;;;;;4901372;29;20028;-79
2022/01/04 19:18:05;;;;;;;64.90;40.30;;;8.40;99.90;;;;;;4972010;28;20471;-80
2022/01/04 19:21:20;;;;;;;69.05;42.25;;;8.40;99.90;;;;;;4930892;29;20063;-79
2022/01/04 19:24:31;;;;;;;59.28;38.08;;;8.40;99.90;;;;;;4929139;29;20070;-79
2022/01/04 19:27:43;;;;;;;63.95;39.13;;;8.30;99.90;;;;;;4944250;28;20039;-79
2022/01/04 19:30:37;;;;;;;61.53;36.30;;;8.30;99.90;;;;;;4955890;28;20031;-79
2022/01/04 19:33:21;;;;;;;59.78;32.83;;;8.30;99.90;;;;;;4928965;29;20050;-77
2022/01/04 19:36:20;;;;;;;49.33;27.75;;;8.40;99.90;;;;;;4964710;28;20030;-79
2022/01/04 19:39:46;;;;;;;41.88;24.52;;;8.40;99.90;;;;;;5112109;27;20523;-79
2022/01/04 19:42:13;;;;;;;;;;;8.50;99.90;;;;;;5119979;28;20030;-79
2022/01/04 19:44:41;;;;;;;42.00;22.25;;;8.50;99.90;;;;;;5111878;28;19912;-80
2022/01/04 19:47:07;;;;;;;34.30;18.77;;;8.50;99.90;;;;;;5109681;28;20024;-79
2022/01/04 19:49:33;;;;;;;43.22;21.38;;;8.50;99.90;;;;;;5106617;28;20130;-80
2022/01/04 19:51:58;;;;;;;;;;;8.60;99.90;;;;;;5132948;28;20032;-79
2022/01/04 19:54:25;;;;;;;42.10;22.15;;;8.60;99.90;;;;;;5109576;28;19892;-81
2022/01/04 19:56:51;;;;;;;33.90;20.17;;;8.50;99.90;;;;;;5119346;28;20008;-79
2022/01/04 20:12:14;;;;;;;41.17;23.65;;;8.60;99.90;;;;;;5190161;23;20053;-79
2022/01/04 20:15:02;;;;;;;;;;;8.60;99.90;;;;;;5034594;28;20038;-79
2022/01/04 20:18:07;;;;;;;37.83;23.65;;;8.60;99.90;;;;;;5034920;28;19910;-80
2022/01/04 20:21:47;;;;;;;92.80;49.83;;;8.60;99.90;;;;;;5035529;28;20086;-81
2022/01/04 20:35:41;;;;;;;39.83;23.05;;;8.70;99.90;;;;;;4993306;28;20030;-81
2022/01/04 20:51:39;;;;;;;43.78;23.33;;;8.60;99.90;;;;;;5652117;22;20057;-81
2022/01/04 20:54:14;;;;;;;41.63;21.98;;;8.60;99.90;;;;;;5044089;28;20020;-80
2022/01/04 21:21:04;;;;;;;27.13;13.27;;;8.50;99.90;;;;;;5059620;28;20036;-78
2022/01/04 21:23:43;;;;;;;23.38;12.68;;;8.70;99.90;;;;;;5042480;28;20036;-79
2022/01/04 21:26:30;;;;;;;24.40;12.07;;;8.60;99.90;;;;;;5026856;28;20014;-79
2022/01/04 21:29:48;;;;;;;43.45;19.85;;;8.60;99.90;;;;;;5048108;28;20020;-80
2022/01/04 21:32:54;;;;;;;;;;;8.60;99.90;;;;;;5023904;28;20037;-80
2022/01/04 21:36:20;;;;;;;49.40;18.17;;;8.60;99.90;;;;;;5056860;28;19896;-79
2022/01/04 21:39:18;;;;;;;30.00;15.38;;;8.70;99.90;;;;;;5054078;28;20120;-78
2022/01/04 21:42:50;;;;;;;25.55;12.93;;;8.60;99.90;;;;;;5058367;28;20032;-80
2022/01/04 21:45:52;;;;;;;12.18;8.20;;;8.50;99.90;;;;;;5006950;28;20052;-79
2022/01/04 21:48:29;;;;;;;11.48;5.85;;;8.50;99.90;;;;;;5050985;28;20104;-80
2022/01/04 21:51:46;;;;;;;11.57;6.05;;;8.50;99.90;;;;;;5020310;28;20030;-78
2022/01/04 21:55:05;;;;;;;12.82;5.85;;;8.50;99.90;;;;;;5051810;28;20018;-79
2022/01/04 21:58:23;;;;;;;23.90;20.30;;;8.40;99.90;;;;;;5055539;28;20022;-80
2022/01/04 22:01:13;;;;;;;19.60;12.70;;;8.50;99.90;;;;;;5056716;28;20034;-80
2022/01/04 22:04:30;;;;;;;22.67;10.50;;;8.50;99.90;;;;;;5025671;28;20042;-80
2022/01/04 22:07:07;;;;;;;18.10;8.95;;;8.40;99.90;;;;;;5054432;28;20049;-80
2022/01/04 22:10:35;;;;;;;23.63;12.95;;;8.30;99.90;;;;;;5038942;28;20032;-81
2022/01/04 22:13:37;;;;;;;30.92;16.35;;;8.40;99.90;;;;;;5057588;28;20025;-79
2022/01/04 22:20:08;;;;;;;12.18;6.63;;;8.30;99.90;;;;;;5028939;28;20068;-80
2022/01/04 22:26:23;;;;;;;20.17;9.43;;;8.30;99.90;;;;;;5057944;28;20028;-81
2022/01/04 22:29:39;;;;;;;30.52;14.48;;;8.40;99.90;;;;;;5057422;28;20021;-80
2022/01/04 22:36:58;;;;;;;23.10;13.30;;;8.50;99.90;;;;;;4960376;29;20039;-80
2022/01/04 22:50:43;;;;;;;38.45;18.38;;;8.50;99.90;;;;;;4875198;29;20098;-82
2022/01/04 22:54:08;;;;;;;45.50;20.35;;;8.40;99.90;;;;;;4922568;29;20021;-83
2022/01/04 23:02:10;;;;;;;46.13;23.17;;;8.30;99.90;;;;;;5525974;23;20061;-80
2022/01/04 23:04:37;;;;;;;41.30;20.98;;;8.30;99.90;;;;;;5058575;28;20021;-79
2022/01/04 23:07:18;;;;;;;36.33;18.25;;;8.30;99.90;;;;;;5066554;28;20040;-81
2022/01/04 23:10:03;;;;;;;36.88;18.50;;;8.30;99.90;;;;;;5074229;28;20045;-79
2022/01/04 23:12:34;;;;;;;33.75;16.98;;;8.20;99.90;;;;;;5057950;28;20044;-80
2022/01/04 23:15:17;;;;;;;28.92;14.88;;;8.20;99.90;;;;;;5074905;28;20037;-80
2022/01/04 23:17:43;;;;;;;28.23;14.55;;;8.10;99.90;;;;;;5055226;28;20097;-79
2022/01/04 23:20:24;;;;;;;;;;;8.10;99.90;;;;;;5056261;28;20036;-80
2022/01/04 23:22:54;;;;;;;38.30;17.55;;;8.00;99.90;;;;;;5056083;28;19905;-80
2022/01/04 23:25:28;;;;;;;26.73;13.35;;;8.10;99.90;;;;;;5065149;28;20037;-79
2022/01/04 23:27:58;;;;;;;22.75;13.07;;;7.90;99.90;;;;;;5054148;28;20017;-79
2022/01/04 23:30:45;;;;;;;23.95;11.35;;;7.90;99.90;;;;;;5054746;28;20036;-80
2022/01/04 23:33:15;;;;;;;21.23;10.95;;;7.90;99.90;;;;;;5038727;28;20037;-79
2022/01/04 23:35:49;;;;;;;23.92;11.60;;;7.80;99.90;;;;;;5055605;28;20052;-80
2022/01/04 23:38:21;;;;;;;24.02;11.48;;;7.80;99.90;;;;;;5054807;28;20095;-80
2022/01/04 23:41:00;;;;;;;22.55;10.32;;;7.70;99.90;;;;;;5055667;28;20021;-80
2022/01/04 23:43:53;;;;;;;16.77;9.35;;;7.70;99.90;;;;;;5071603;28;20424;-79
2022/01/04 23:46:27;;;;;;;21.00;10.85;;;7.60;99.90;;;;;;5073127;28;20040;-79
2022/01/04 23:49:30;;;;;;;14.65;9.10;;;7.50;99.90;;;;;;5073530;28;20025;-80
2022/01/04 23:52:08;;;;;;;27.38;15.63;;;7.50;99.90;;;;;;5058753;28;20044;-80
2022/01/04 23:58:01;;;;;;;27.73;15.70;;;7.30;99.90;;;;;;5277322;22;20045;-82
